createdAt,value
2023-05-24T00:00:56.111Z,102405.44
2023-05-24T00:03:25.010Z,102410.00
2023-05-24T00:05:54.021Z,102410.94
2023-05-24T00:08:24.524Z,102414.94
2023-05-24T00:10:52.929Z,102412.84
2023-05-24T00:13:21.608Z,102423.66
2023-05-24T00:15:50.114Z,102411.50
2023-05-24T00:18:19.144Z,102412.91
2023-05-24T00:20:48.363Z,102404.59
2023-05-24T00:23:16.974Z,102412.16
2023-05-24T00:25:47.255Z,102412.53
2023-05-24T00:28:16.037Z,102411.75
2023-05-24T00:30:44.917Z,102408.84
2023-05-24T00:33:13.591Z,102407.56
2023-05-24T00:35:42.126Z,102400.44
2023-05-24T00:38:10.883Z,102403.88
2023-05-24T00:40:39.655Z,102407.94
2023-05-24T00:43:09.724Z,102409.16
2023-05-24T00:45:38.463Z,102406.78
2023-05-24T00:48:07.519Z,102411.84
2023-05-24T00:50:36.669Z,102402.38
2023-05-24T00:53:06.399Z,102405.03
2023-05-24T00:55:36.865Z,102412.22
2023-05-24T00:58:05.506Z,102406.44
2023-05-24T01:00:35.656Z,102400.28
2023-05-24T01:03:04.406Z,102409.31
2023-05-24T01:05:33.580Z,102408.03
2023-05-24T01:08:12.117Z,102414.91
2023-05-24T01:10:49.250Z,102410.50
2023-05-24T01:13:25.717Z,102410.66
2023-05-24T01:16:02.672Z,102401.25
2023-05-24T01:18:35.574Z,102405.97
2023-05-24T01:21:18.321Z,102403.16
2023-05-24T01:23:51.227Z,102398.22
2023-05-24T01:26:29.237Z,102402.22
2023-05-24T01:29:01.859Z,102398.88
2023-05-24T01:31:30.405Z,102398.81
2023-05-24T01:33:59.473Z,102402.31
2023-05-24T01:36:27.821Z,102404.97
2023-05-24T01:38:56.699Z,102395.97
2023-05-24T01:41:37.503Z,102405.56
2023-05-24T01:44:17.725Z,102397.19
2023-05-24T01:46:51.838Z,102401.78
2023-05-24T01:49:24.621Z,102398.63
2023-05-24T01:51:58.926Z,102398.53
2023-05-24T01:54:30.086Z,102400.50
2023-05-24T01:57:00.338Z,102398.66
2023-05-24T01:59:33.555Z,102402.25
2023-05-24T02:02:02.692Z,102399.44
2023-05-24T02:04:33.090Z,102396.78
2023-05-24T02:07:02.101Z,102404.56
2023-05-24T02:09:30.716Z,102412.75
2023-05-24T02:11:59.357Z,102411.31
2023-05-24T02:14:29.475Z,102405.75
2023-05-24T02:16:59.353Z,102408.13
2023-05-24T02:19:28.098Z,102413.63
2023-05-24T02:21:56.817Z,102411.84
2023-05-24T02:24:25.562Z,102422.16
2023-05-24T02:26:55.887Z,102427.19
2023-05-24T02:29:24.512Z,102435.22
2023-05-24T02:31:56.779Z,102437.47
2023-05-24T02:34:26.273Z,102436.19
2023-05-24T02:36:56.422Z,102430.69
2023-05-24T02:39:24.860Z,102448.78
2023-05-24T02:41:54.539Z,102452.72
2023-05-24T02:44:23.112Z,102450.72
2023-05-24T02:46:51.988Z,102455.91
2023-05-24T02:49:22.048Z,102455.69
2023-05-24T02:51:51.831Z,102452.28
2023-05-24T02:54:20.645Z,102446.69
2023-05-24T02:56:50.220Z,102448.13
2023-05-24T02:59:19.150Z,102443.72
2023-05-24T03:01:47.669Z,102446.59
2023-05-24T03:04:16.311Z,102451.00
2023-05-24T03:06:47.590Z,102465.44
2023-05-24T03:09:17.953Z,102456.88
2023-05-24T03:11:46.491Z,102465.72
2023-05-24T03:14:15.190Z,102464.81
2023-05-24T03:16:43.700Z,102466.59
2023-05-24T03:19:12.357Z,102466.59
2023-05-24T03:21:41.125Z,102470.88
2023-05-24T03:24:13.375Z,102465.06
2023-05-24T03:26:41.927Z,102462.44
2023-05-24T03:29:10.484Z,102460.66
2023-05-24T03:31:39.429Z,102469.28
2023-05-24T03:34:08.080Z,102461.66
2023-05-24T03:36:36.893Z,102465.38
2023-05-24T03:39:08.073Z,102461.75
2023-05-24T03:41:38.258Z,102461.81
2023-05-24T03:44:06.723Z,102467.25
2023-05-24T03:46:35.305Z,102477.09
2023-05-24T03:49:04.059Z,102474.47
2023-05-24T03:51:33.055Z,102466.84
2023-05-24T03:54:01.697Z,102473.28
2023-05-24T03:56:30.311Z,102476.03
2023-05-24T03:59:04.224Z,102476.03
2023-05-24T04:01:34.678Z,102479.47
2023-05-24T04:04:04.259Z,102482.69
2023-05-24T04:06:32.985Z,102487.84
2023-05-24T04:09:02.176Z,102489.84
2023-05-24T04:11:30.792Z,102488.91
2023-05-24T04:14:01.587Z,102494.09
2023-05-24T04:16:34.534Z,102495.13
2023-05-24T04:19:04.485Z,102494.94
2023-05-24T04:21:33.583Z,102492.41
2023-05-24T04:24:04.267Z,102499.66
2023-05-24T04:26:34.445Z,102497.88
2023-05-24T04:29:05.346Z,102493.59
2023-05-24T04:31:34.475Z,102505.38
2023-05-24T04:34:03.321Z,102510.53
2023-05-24T04:36:34.295Z,102515.84
2023-05-24T04:39:05.497Z,102526.63
2023-05-24T04:41:35.548Z,102526.03
2023-05-24T04:44:05.682Z,102526.81
2023-05-24T04:46:36.536Z,102529.75
2023-05-24T04:49:05.993Z,102526.16
2023-05-24T04:51:38.918Z,102528.03
2023-05-24T04:54:09.346Z,102534.94
2023-05-24T04:56:39.532Z,102542.94
2023-05-24T04:59:10.125Z,102540.00
2023-05-24T05:01:38.748Z,102539.09
2023-05-24T05:04:08.445Z,102538.03
2023-05-24T05:06:39.782Z,102545.75
2023-05-24T05:09:10.950Z,102546.75
2023-05-24T05:11:39.696Z,102542.41
2023-05-24T05:14:10.797Z,102545.81
2023-05-24T05:16:40.346Z,102542.25
2023-05-24T05:19:08.893Z,102540.88
2023-05-24T05:21:39.891Z,102545.28
2023-05-24T05:24:08.555Z,102557.44
2023-05-24T05:26:37.222Z,102557.34
2023-05-24T05:29:05.573Z,102550.03
2023-05-24T05:31:36.673Z,102542.91
2023-05-24T05:34:05.654Z,102555.19
2023-05-24T05:36:34.306Z,102555.03
2023-05-24T05:39:02.896Z,102557.34
2023-05-24T05:41:31.594Z,102555.44
2023-05-24T05:44:00.112Z,102554.38
2023-05-24T05:46:28.802Z,102557.69
2023-05-24T05:48:59.060Z,102554.66
2023-05-24T05:51:27.420Z,102555.69
2023-05-24T05:53:56.207Z,102566.25
2023-05-24T05:56:25.064Z,102567.22
2023-05-24T05:58:53.457Z,102563.41
2023-05-24T06:01:21.956Z,102564.13
2023-05-24T06:03:50.574Z,102559.53
2023-05-24T06:06:20.550Z,102561.81
2023-05-24T06:08:49.027Z,102554.25
2023-05-24T06:11:17.292Z,102561.09
2023-05-24T06:13:45.867Z,102564.69
2023-05-24T06:16:14.634Z,102552.31
2023-05-24T06:18:50.093Z,102559.19
2023-05-24T06:21:23.590Z,102553.97
2023-05-24T06:23:52.155Z,102554.69
2023-05-24T06:26:21.539Z,102562.34
2023-05-24T06:28:49.942Z,102552.53
2023-05-24T06:31:18.557Z,102554.09
2023-05-24T06:33:55.984Z,102557.56
2023-05-24T06:36:34.362Z,102554.59
2023-05-24T06:39:02.931Z,102557.03
2023-05-24T06:41:31.392Z,102554.91
2023-05-24T06:44:00.380Z,102556.03
2023-05-24T06:46:29.135Z,102557.25
2023-05-24T06:48:57.739Z,102557.81
2023-05-24T06:51:27.579Z,102553.66
2023-05-24T06:53:58.650Z,102561.97
2023-05-24T06:56:27.428Z,102556.28
2023-05-24T06:58:56.332Z,102553.91
2023-05-24T07:01:25.017Z,102550.09
2023-05-24T07:03:53.666Z,102558.44
2023-05-24T07:06:22.097Z,102557.88
2023-05-24T07:08:50.592Z,102560.44
2023-05-24T07:11:21.148Z,102555.66
2023-05-24T07:13:50.326Z,102557.13
2023-05-24T07:16:19.105Z,102558.69
2023-05-24T07:18:47.698Z,102566.00
2023-05-24T07:21:16.112Z,102563.03
2023-05-24T07:23:44.481Z,102567.09
2023-05-24T07:26:12.914Z,102575.56
2023-05-24T07:28:42.959Z,102567.16
2023-05-24T07:31:12.057Z,102561.41
2023-05-24T07:33:41.527Z,102558.06
2023-05-24T07:36:11.061Z,102561.88
2023-05-24T07:38:39.373Z,102559.06
2023-05-24T07:41:09.491Z,102555.88
2023-05-24T07:43:38.595Z,102560.81
2023-05-24T07:46:08.502Z,102564.78
2023-05-24T07:48:37.029Z,102567.13
2023-05-24T07:51:06.592Z,102566.94
2023-05-24T07:53:35.744Z,102563.72
2023-05-24T07:56:04.745Z,102572.78
2023-05-24T07:58:33.510Z,102572.63
2023-05-24T08:01:02.410Z,102568.16
2023-05-24T08:03:33.254Z,102565.25
2023-05-24T08:06:02.181Z,102556.00
2023-05-24T08:08:30.881Z,102554.88
2023-05-24T08:10:59.336Z,102562.25
2023-05-24T08:13:28.288Z,102561.53
2023-05-24T08:15:56.718Z,102545.47
2023-05-24T08:18:25.278Z,102548.84
2023-05-24T08:20:58.380Z,102545.53
2023-05-24T08:23:27.217Z,102545.75
2023-05-24T08:25:55.890Z,102544.28
2023-05-24T08:28:24.862Z,102539.47
2023-05-24T08:30:53.382Z,102545.38
2023-05-24T08:33:23.222Z,102541.19
2023-05-24T08:35:52.527Z,102542.97
2023-05-24T08:38:22.840Z,102533.88
2023-05-24T08:40:51.590Z,102536.53
2023-05-24T08:43:23.426Z,102546.75
2023-05-24T08:45:54.597Z,102543.44
2023-05-24T08:48:23.956Z,102537.50
2023-05-24T08:50:53.638Z,102536.81
2023-05-24T08:53:25.478Z,102537.69
2023-05-24T08:55:56.379Z,102522.59
2023-05-24T08:58:24.999Z,102524.66
2023-05-24T09:00:54.118Z,102528.00
2023-05-24T09:03:24.549Z,102518.91
2023-05-24T09:05:55.085Z,102523.22
2023-05-24T09:08:26.098Z,102523.34
2023-05-24T09:10:55.920Z,102522.13
2023-05-24T09:13:26.129Z,102520.00
2023-05-24T09:15:55.841Z,102516.88
2023-05-24T09:18:25.152Z,102519.81
2023-05-24T09:20:53.561Z,102524.38
2023-05-24T09:23:22.391Z,102519.31
2023-05-24T09:25:53.986Z,102516.72
2023-05-24T09:28:22.608Z,102519.50
2023-05-24T09:31:03.923Z,102521.50
2023-05-24T09:33:35.440Z,102516.59
2023-05-24T09:36:07.798Z,102517.25
2023-05-24T09:38:36.790Z,102513.66
2023-05-24T09:41:11.292Z,102511.03
2023-05-24T09:43:50.011Z,102515.34
2023-05-24T09:46:20.693Z,102513.81
2023-05-24T09:48:59.126Z,102507.09
2023-05-24T09:51:28.891Z,102510.13
2023-05-24T09:53:59.779Z,102504.09
2023-05-24T09:56:31.461Z,102504.63
2023-05-24T09:59:00.493Z,102498.66
2023-05-24T10:01:29.237Z,102500.69
2023-05-24T10:04:00.871Z,102501.00
2023-05-24T10:06:37.523Z,102511.53
2023-05-24T10:09:09.689Z,102517.44
2023-05-24T10:11:40.701Z,102517.09
2023-05-24T10:14:12.143Z,102510.38
2023-05-24T10:16:40.844Z,102506.91
2023-05-24T10:19:09.581Z,102500.88
2023-05-24T10:21:42.317Z,102498.31
2023-05-24T10:24:12.984Z,102498.03
2023-05-24T10:26:47.414Z,102491.44
2023-05-24T10:29:26.598Z,102502.81
2023-05-24T10:31:56.040Z,102503.22
2023-05-24T10:34:25.351Z,102509.91
2023-05-24T10:36:54.236Z,102514.31
2023-05-24T10:39:24.180Z,102509.94
2023-05-24T10:41:58.920Z,102505.78
2023-05-24T10:44:32.089Z,102518.31
2023-05-24T10:47:22.000Z,102515.28
2023-05-24T10:49:53.303Z,102510.72
2023-05-24T10:52:22.276Z,102508.22
2023-05-24T10:55:08.257Z,102505.41
2023-05-24T10:57:39.499Z,102509.69
2023-05-24T11:03:04.593Z,102504.72
2023-05-24T11:05:53.538Z,102505.88
2023-05-24T11:08:27.797Z,102508.00
2023-05-24T11:11:31.967Z,102505.81
2023-05-24T11:14:03.013Z,102493.44
2023-05-24T11:16:35.591Z,102498.84
2023-05-24T11:19:13.852Z,102497.56
2023-05-24T11:21:45.002Z,102484.84
2023-05-24T11:24:15.152Z,102488.25
2023-05-24T11:26:43.636Z,102474.81
2023-05-24T11:29:18.022Z,102471.97
2023-05-24T11:31:51.248Z,102473.59
2023-05-24T11:34:20.805Z,102481.59
2023-05-24T11:36:50.321Z,102486.31
2023-05-24T11:39:55.995Z,102484.75
2023-05-24T11:42:24.604Z,102476.56
2023-05-24T11:44:55.545Z,102472.59
2023-05-24T11:47:25.144Z,102472.81
2023-05-24T11:49:54.342Z,102465.69
2023-05-24T11:52:23.911Z,102480.47
2023-05-24T11:54:52.532Z,102462.31
2023-05-24T11:57:28.593Z,102473.28
2023-05-24T11:59:59.258Z,102469.59
2023-05-24T12:02:27.690Z,102478.63
2023-05-24T12:04:56.870Z,102463.50
2023-05-24T12:07:25.539Z,102468.03
2023-05-24T12:09:54.068Z,102466.38
2023-05-24T12:12:30.426Z,102458.75
2023-05-24T12:15:05.903Z,102454.50
2023-05-24T12:17:35.605Z,102461.59
2023-05-24T12:20:07.341Z,102456.88
2023-05-24T12:22:36.058Z,102446.41
2023-05-24T12:25:05.839Z,102450.31
2023-05-24T12:27:36.168Z,102453.69
2023-05-24T12:30:14.404Z,102454.50
2023-05-24T12:32:43.697Z,102441.59
2023-05-24T12:35:13.110Z,102444.03
2023-05-24T12:37:42.628Z,102444.91
2023-05-24T12:40:21.061Z,102440.38
2023-05-24T12:42:52.789Z,102443.44
2023-05-24T12:45:26.277Z,102447.28
2023-05-24T12:47:56.070Z,102438.41
2023-05-24T12:50:27.035Z,102427.56
2023-05-24T12:52:58.254Z,102428.59
2023-05-24T12:55:28.275Z,102427.41
2023-05-24T12:57:58.445Z,102423.47
2023-05-24T13:00:30.147Z,102434.22
2023-05-24T13:03:00.367Z,102430.84
2023-05-24T13:05:30.492Z,102431.81
2023-05-24T13:07:59.923Z,102445.00
2023-05-24T13:10:29.576Z,102441.16
2023-05-24T13:12:58.076Z,102438.97
2023-05-24T13:15:29.272Z,102430.91
2023-05-24T13:17:58.094Z,102439.75
2023-05-24T13:20:27.143Z,102436.19
2023-05-24T13:22:55.492Z,102438.75
2023-05-24T13:25:24.154Z,102433.13
2023-05-24T13:27:52.493Z,102445.41
2023-05-24T13:30:27.887Z,102449.72
2023-05-24T13:32:59.000Z,102446.41
2023-05-24T13:35:27.644Z,102447.66
2023-05-24T13:37:58.193Z,102457.59
2023-05-24T13:40:27.101Z,102444.94
2023-05-24T13:42:58.355Z,102437.06
2023-05-24T13:45:30.315Z,102449.00
2023-05-24T13:48:04.376Z,102445.97
2023-05-24T13:50:34.684Z,102451.50
2023-05-24T13:53:04.096Z,102448.84
2023-05-24T13:55:34.373Z,102450.28
2023-05-24T13:58:18.156Z,102454.03
2023-05-24T14:00:47.565Z,102456.06
2023-05-24T14:03:17.701Z,102455.59
2023-05-24T14:05:46.442Z,102458.94
2023-05-24T14:08:15.194Z,102455.88
2023-05-24T14:10:43.696Z,102446.59
2023-05-24T14:13:36.729Z,102455.19
2023-05-24T14:16:01.085Z,102449.78
2023-05-24T14:18:31.865Z,102456.28
2023-05-24T14:21:00.631Z,102457.06
2023-05-24T14:23:32.164Z,102449.53
2023-05-24T14:26:01.563Z,102444.22
2023-05-24T14:28:30.475Z,102444.41
2023-05-24T14:30:59.258Z,102455.56
2023-05-24T14:33:27.577Z,102449.25
2023-05-24T14:35:57.965Z,102448.97
2023-05-24T14:38:26.407Z,102451.09
2023-05-24T14:40:57.055Z,102459.66
2023-05-24T14:43:25.842Z,102459.69
2023-05-24T14:45:54.582Z,102465.75
2023-05-24T14:48:23.030Z,102462.25
2023-05-24T14:50:51.685Z,102464.31
2023-05-24T14:53:21.729Z,102474.69
2023-05-24T14:55:50.469Z,102470.25
2023-05-24T14:58:20.688Z,102471.25
2023-05-24T15:00:49.597Z,102474.38
2023-05-24T15:03:19.030Z,102472.28
2023-05-24T15:05:49.016Z,102466.84
2023-05-24T15:08:17.701Z,102470.56
2023-05-24T15:10:48.219Z,102460.94
2023-05-24T15:13:16.765Z,102467.78
2023-05-24T15:15:45.478Z,102471.28
2023-05-24T15:18:14.314Z,102473.34
2023-05-24T15:20:43.225Z,102462.00
2023-05-24T15:23:12.200Z,102463.97
2023-05-24T15:25:41.378Z,102465.63
2023-05-24T15:28:13.211Z,102468.28
2023-05-24T15:30:44.729Z,102467.59
2023-05-24T15:33:14.329Z,102475.25
2023-05-24T15:35:43.213Z,102477.22
2023-05-24T15:38:11.839Z,102479.84
2023-05-24T15:40:42.374Z,102477.72
2023-05-24T15:43:13.442Z,102480.34
2023-05-24T15:45:42.044Z,102488.56
2023-05-24T15:48:10.631Z,102485.66
2023-05-24T15:50:59.915Z,102492.13
2023-05-24T15:53:28.380Z,102493.69
2023-05-24T15:55:57.829Z,102485.84
2023-05-24T15:58:27.967Z,102493.91
2023-05-24T16:00:56.584Z,102490.63
2023-05-24T16:03:25.280Z,102491.50
2023-05-24T16:05:54.152Z,102497.22
2023-05-24T16:08:28.048Z,102494.56
2023-05-24T16:10:56.930Z,102496.13
2023-05-24T16:13:25.885Z,102498.66
2023-05-24T16:15:56.250Z,102503.53
2023-05-24T16:18:25.920Z,102494.91
2023-05-24T16:20:54.591Z,102491.03
2023-05-24T16:23:24.206Z,102496.84
2023-05-24T16:25:52.944Z,102496.72
2023-05-24T16:28:24.637Z,102500.72
2023-05-24T16:30:56.242Z,102492.53
2023-05-24T16:33:26.617Z,102501.22
2023-05-24T16:35:59.237Z,102502.06
2023-05-24T16:38:28.993Z,102495.66
2023-05-24T16:40:57.646Z,102496.13
2023-05-24T16:43:26.510Z,102493.53
2023-05-24T16:45:55.374Z,102485.31
2023-05-24T16:48:28.818Z,102499.41
2023-05-24T16:51:00.055Z,102495.50
2023-05-24T16:53:29.204Z,102493.91
2023-05-24T16:55:58.856Z,102496.16
2023-05-24T16:58:29.078Z,102493.56
2023-05-24T17:00:58.937Z,102484.84
2023-05-24T17:03:29.444Z,102492.84
2023-05-24T17:06:04.112Z,102497.72
2023-05-24T17:08:35.954Z,102504.59
2023-05-24T17:11:05.065Z,102493.06
2023-05-24T17:13:34.673Z,102493.81
2023-05-24T17:16:05.211Z,102496.25
2023-05-24T17:18:34.189Z,102497.78
2023-05-24T17:21:06.083Z,102498.13
2023-05-24T17:23:37.123Z,102500.31
2023-05-24T17:26:08.443Z,102499.03
2023-05-24T17:28:37.443Z,102496.44
2023-05-24T17:31:06.094Z,102500.09
2023-05-24T17:33:34.749Z,102497.75
2023-05-24T17:36:06.661Z,102504.19
2023-05-24T17:38:37.794Z,102502.97
2023-05-24T17:41:09.272Z,102494.88
2023-05-24T17:43:40.251Z,102498.19
2023-05-24T17:46:10.011Z,102497.28
2023-05-24T17:48:41.288Z,102495.78
2023-05-24T17:51:11.900Z,102492.44
2023-05-24T17:53:43.382Z,102496.34
2023-05-24T17:56:12.223Z,102497.22
2023-05-24T17:58:41.434Z,102496.09
2023-05-24T18:01:13.458Z,102499.78
2023-05-24T18:03:42.894Z,102498.50
2023-05-24T18:06:12.972Z,102502.97
2023-05-24T18:08:44.101Z,102504.97
2023-05-24T18:11:13.793Z,102509.50
2023-05-24T18:13:44.452Z,102507.50
2023-05-24T18:16:13.873Z,102505.41
2023-05-24T18:18:44.246Z,102504.63
2023-05-24T18:21:14.580Z,102506.53
2023-05-24T18:23:43.605Z,102508.66
2023-05-24T18:26:13.711Z,102501.50
2023-05-24T18:28:42.554Z,102504.28
2023-05-24T18:31:12.032Z,102511.03
2023-05-24T18:33:40.988Z,102520.47
2023-05-24T18:36:09.702Z,102512.81
2023-05-24T18:38:40.874Z,102514.50
2023-05-24T18:41:12.466Z,102517.19
2023-05-24T18:43:43.180Z,102519.84
2023-05-24T18:46:13.988Z,102515.47
2023-05-24T18:48:43.162Z,102517.53
2023-05-24T18:51:11.611Z,102516.13
2023-05-24T18:53:41.741Z,102524.34
2023-05-24T18:56:10.189Z,102518.91
2023-05-24T18:58:38.811Z,102521.72
2023-05-24T19:01:07.926Z,102522.06
2023-05-24T19:03:36.498Z,102521.97
2023-05-24T19:06:05.236Z,102526.13
2023-05-24T19:08:33.680Z,102530.25
2023-05-24T19:11:04.348Z,102527.31
2023-05-24T19:13:32.889Z,102526.03
2023-05-24T19:16:02.029Z,102529.16
2023-05-24T19:18:30.524Z,102531.28
2023-05-24T19:20:59.353Z,102529.88
2023-05-24T19:23:28.168Z,102532.34
2023-05-24T19:25:56.764Z,102531.41
2023-05-24T19:28:26.853Z,102529.56
2023-05-24T19:30:55.374Z,102528.63
2023-05-24T19:33:24.337Z,102525.97
2023-05-24T19:35:59.819Z,102530.13
2023-05-24T19:38:29.236Z,102529.81
2023-05-24T19:40:57.886Z,102526.63
2023-05-24T19:43:27.835Z,102524.16
2023-05-24T19:45:58.093Z,102529.94
2023-05-24T19:48:27.386Z,102523.97
2023-05-24T19:50:55.876Z,102535.25
2023-05-24T19:53:24.542Z,102537.41
2023-05-24T19:55:52.967Z,102525.97
2023-05-24T19:58:21.552Z,102535.25
2023-05-24T20:00:51.821Z,102533.78
2023-05-24T20:03:20.582Z,102540.38
2023-05-24T20:05:49.647Z,102538.78
2023-05-24T20:08:20.066Z,102539.50
2023-05-24T20:10:50.872Z,102554.84
2023-05-24T20:13:19.544Z,102552.63
2023-05-24T20:15:48.157Z,102555.41
2023-05-24T20:18:18.629Z,102554.44
2023-05-24T20:20:47.271Z,102559.34
2023-05-24T20:23:16.276Z,102556.91
2023-05-24T20:25:44.749Z,102562.66
2023-05-24T20:28:28.784Z,102569.38
2023-05-24T20:30:58.424Z,102559.69
2023-05-24T20:33:28.756Z,102570.34
2023-05-24T20:35:57.547Z,102561.56
2023-05-24T20:38:25.982Z,102562.66
2023-05-24T20:40:54.388Z,102574.25
2023-05-24T20:43:22.965Z,102572.66
2023-05-24T20:45:51.576Z,102580.97
2023-05-24T20:48:20.243Z,102586.91
2023-05-24T20:50:50.249Z,102582.03
2023-05-24T20:53:19.686Z,102593.66
2023-05-24T20:55:48.018Z,102592.97
2023-05-24T20:58:17.378Z,102589.63
2023-05-24T21:00:46.014Z,102594.50
2023-05-24T21:03:14.896Z,102593.16
2023-05-24T21:05:43.770Z,102592.09
2023-05-24T21:08:14.037Z,102593.81
2023-05-24T21:10:42.334Z,102596.59
2023-05-24T21:13:10.757Z,102600.53
2023-05-24T21:15:39.224Z,102600.53
2023-05-24T21:18:07.695Z,102601.75
2023-05-24T21:20:36.334Z,102600.41
2023-05-24T21:23:05.101Z,102601.22
2023-05-24T21:25:35.108Z,102604.97
2023-05-24T21:28:03.568Z,102614.97
2023-05-24T21:30:32.862Z,102614.00
2023-05-24T21:33:01.362Z,102616.28
2023-05-24T21:35:29.962Z,102615.38
2023-05-24T21:37:58.805Z,102625.72
2023-05-24T21:40:27.705Z,102626.63
2023-05-24T21:42:57.583Z,102628.97
2023-05-24T21:45:26.279Z,102632.56
2023-05-24T21:47:54.847Z,102634.50
2023-05-24T21:50:23.559Z,102630.88
2023-05-24T21:52:52.341Z,102627.25
2023-05-24T21:55:20.983Z,102625.44
2023-05-24T21:57:49.372Z,102627.47
2023-05-24T22:00:20.611Z,102621.91
2023-05-24T22:02:49.561Z,102618.34
2023-05-24T22:05:18.348Z,102623.69
2023-05-24T22:07:48.003Z,102628.09
2023-05-24T22:10:17.160Z,102627.22
2023-05-24T22:12:45.842Z,102625.31
2023-05-24T22:15:14.405Z,102635.59
2023-05-24T22:17:44.269Z,102636.38
2023-05-24T22:20:13.642Z,102638.97
2023-05-24T22:22:49.011Z,102642.31
2023-05-24T22:25:19.794Z,102645.16
2023-05-24T22:27:48.855Z,102644.91
2023-05-24T22:30:17.576Z,102646.41
2023-05-24T22:32:47.794Z,102642.06
2023-05-24T22:35:16.657Z,102645.94
2023-05-24T22:37:45.351Z,102651.66
2023-05-24T22:40:14.791Z,102647.38
2023-05-24T22:42:43.533Z,102657.09
2023-05-24T22:45:14.054Z,102650.16
2023-05-24T22:47:42.489Z,102645.59
2023-05-24T22:50:12.794Z,102654.75
2023-05-24T22:52:43.107Z,102654.81
2023-05-24T22:55:12.416Z,102653.00
2023-05-24T22:57:40.989Z,102656.84
2023-05-24T23:00:12.077Z,102660.44
2023-05-24T23:02:40.722Z,102664.44
2023-05-24T23:05:11.757Z,102668.16
2023-05-24T23:07:40.299Z,102672.50
2023-05-24T23:10:09.632Z,102673.38
2023-05-24T23:12:42.280Z,102669.50
2023-05-24T23:15:18.661Z,102672.50
2023-05-24T23:17:48.585Z,102672.06
2023-05-24T23:20:18.781Z,102666.72
2023-05-24T23:22:48.674Z,102674.16
2023-05-24T23:25:17.340Z,102672.22
2023-05-24T23:27:45.746Z,102685.25
2023-05-24T23:30:14.365Z,102678.63
2023-05-24T23:32:42.996Z,102673.78
2023-05-24T23:35:11.453Z,102675.97
2023-05-24T23:37:41.493Z,102676.25
2023-05-24T23:40:12.039Z,102676.81
2023-05-24T23:42:40.507Z,102675.19
2023-05-24T23:45:09.596Z,102687.47
2023-05-24T23:47:38.241Z,102683.00
2023-05-24T23:50:08.110Z,102691.63
2023-05-24T23:52:36.595Z,102681.56
2023-05-24T23:55:07.827Z,102684.41
2023-05-24T23:57:36.457Z,102692.84
